Time;durP1;ratioP1;P1;durP2;ratioP2;P2;SDS_P1;SDS_P2;PMS_P1;PMS_P2;Temp;Humidity;BMP_temperature;BMP_pressure;BME280_temperature;BME280_humidity;BME280_pressure;Samples;Min_cycle;Max_cycle;Signal;HPM_P1;HPM_P2
2022/11/24 00:01:03;;;;;;;91.87;49.27;;;2.50;1.00;;;;;;6213298;28;20235;-52
2022/11/24 00:04:07;;;;;;;82.47;45.37;;;2.70;1.00;;;;;;6212968;28;20555;-54
2022/11/24 00:07:10;;;;;;;81.03;46.60;;;2.70;1.00;;;;;;6218927;28;20253;-53
2022/11/24 00:10:13;;;;;;;92.27;48.17;;;2.50;1.00;;;;;;6240992;28;20629;-53
2022/11/24 00:13:18;;;;;;;104.20;52.10;;;2.50;1.00;;;;;;6228655;28;20241;-53
2022/11/24 00:16:23;;;;;;;102.90;50.27;;;2.50;1.00;;;;;;6213837;28;20418;-53
2022/11/24 00:19:26;;;;;;;77.53;46.57;;;2.70;1.00;;;;;;6237228;28;20693;-53
2022/11/24 00:22:29;;;;;;;90.80;50.90;;;2.60;1.00;;;;;;6238036;28;20482;-48
2022/11/24 00:25:32;;;;;;;97.33;52.00;;;2.70;1.00;;;;;;6212215;28;20251;-50
2022/11/24 00:28:38;;;;;;;94.93;52.17;;;2.40;1.00;;;;;;6213218;28;20243;-52
2022/11/24 00:31:42;;;;;;;99.37;52.37;;;2.30;1.00;;;;;;6212879;28;20560;-52
2022/11/24 00:34:46;;;;;;;85.23;50.43;;;2.40;1.00;;;;;;6212322;28;20314;-53
2022/11/24 00:37:49;;;;;;;109.93;53.07;;;2.30;1.00;;;;;;6224828;28;20230;-54
2022/11/24 00:40:53;;;;;;;88.53;50.43;;;2.60;1.00;;;;;;6240130;28;20309;-54
2022/11/24 00:43:58;;;;;;;94.80;54.80;;;2.60;1.00;;;;;;6228988;28;20631;-53
2022/11/24 00:47:01;;;;;;;87.70;50.57;;;2.30;1.00;;;;;;6215074;28;20785;-53
2022/11/24 00:50:05;;;;;;;95.40;53.07;;;2.60;1.00;;;;;;6236626;28;20263;-53
2022/11/24 00:53:08;;;;;;;96.90;51.80;;;2.40;1.00;;;;;;6236023;28;20262;-53
2022/11/24 00:56:12;;;;;;;94.37;50.93;;;2.50;1.00;;;;;;6210637;28;20239;-54
2022/11/24 00:59:16;;;;;;;88.77;50.70;;;2.60;1.00;;;;;;6211392;28;20641;-54
2022/11/24 01:02:20;;;;;;;87.43;46.47;;;2.60;1.00;;;;;;6221834;28;20285;-54
2022/11/24 01:05:23;;;;;;;88.97;50.70;;;2.60;1.00;;;;;;6226803;28;20247;-53
2022/11/24 01:08:26;;;;;;;100.80;51.77;;;2.70;1.00;;;;;;6235870;28;20320;-54
2022/11/24 01:11:59;;;;;;;92.67;51.37;;;2.70;1.00;;;;;;6240433;28;20618;-53
2022/11/24 01:14:56;;;;;;;122.17;54.70;;;2.70;1.00;;;;;;6227538;28;20371;-54
2022/11/24 01:17:59;;;;;;;107.77;52.30;;;2.60;1.00;;;;;;6230366;28;20481;-55
2022/11/24 01:21:05;;;;;;;104.60;54.03;;;2.60;1.00;;;;;;6236208;28;20242;-55
2022/11/24 01:24:12;;;;;;;108.63;53.00;;;2.40;1.00;;;;;;6215816;28;20240;-54
2022/11/24 01:27:16;;;;;;;96.13;52.63;;;2.20;1.00;;;;;;6200709;28;20242;-52
2022/11/24 01:30:21;;;;;;;99.73;52.40;;;2.20;1.00;;;;;;6182741;28;20232;-53
2022/11/24 01:33:25;;;;;;;95.07;51.70;;;2.50;1.00;;;;;;6186809;28;20428;-53
2022/11/24 01:36:28;;;;;;;121.80;54.00;;;2.50;1.00;;;;;;6182778;28;20333;-53
2022/11/24 01:39:31;;;;;;;98.03;50.97;;;2.30;1.00;;;;;;6208491;28;20667;-53
2022/11/24 01:42:42;;;;;;;90.73;48.80;;;2.30;1.00;;;;;;6214947;28;20342;-54
2022/11/24 01:45:47;;;;;;;87.40;48.27;;;2.30;1.00;;;;;;6210218;28;20246;-54
2022/11/24 01:48:57;;;;;;;93.57;49.73;;;2.20;1.00;;;;;;6198294;28;20346;-54
2022/11/24 01:52:06;;;;;;;94.83;48.43;;;2.20;1.00;;;;;;6210192;28;20243;-53
2022/11/24 01:55:14;;;;;;;84.27;46.33;;;2.50;1.00;;;;;;6208919;28;20245;-55
2022/11/24 01:58:21;;;;;;;89.20;46.20;;;2.50;1.00;;;;;;6199256;28;20428;-53
2022/11/24 02:01:25;;;;;;;93.90;47.80;;;2.50;1.00;;;;;;6186370;28;20628;-55
2022/11/24 02:04:32;;;;;;;77.10;45.60;;;2.20;1.00;;;;;;6193394;28;20746;-53
2022/11/24 02:07:37;;;;;;;81.47;47.37;;;2.50;1.00;;;;;;6189528;28;20276;-54
2022/11/24 02:10:40;;;;;;;80.57;45.60;;;2.30;1.00;;;;;;6206319;28;20232;-53
2022/11/24 02:13:45;;;;;;;93.57;48.30;;;2.30;1.00;;;;;;6205380;28;20315;-54
2022/11/24 02:16:52;;;;;;;90.13;47.43;;;2.10;1.00;;;;;;6190019;28;20262;-54
2022/11/24 02:19:58;;;;;;;95.10;48.60;;;2.20;1.00;;;;;;6186030;28;20228;-53
2022/11/24 02:23:07;;;;;;;85.80;46.17;;;2.10;1.00;;;;;;6186089;28;20624;-54
2022/11/24 02:26:21;;;;;;;97.33;47.63;;;2.10;1.00;;;;;;6207796;28;20793;-53
2022/11/24 02:29:26;;;;;;;122.50;50.37;;;2.10;1.00;;;;;;6210496;28;20777;-53
2022/11/24 02:32:30;;;;;;;114.13;51.40;;;2.20;1.00;;;;;;6187689;28;20302;-54
2022/11/24 02:35:34;;;;;;;84.23;49.13;;;2.10;1.00;;;;;;6186901;28;20455;-53
2022/11/24 02:38:37;;;;;;;87.37;47.07;;;2.20;1.00;;;;;;6209922;28;20237;-52
2022/11/24 02:41:46;;;;;;;94.63;46.10;;;2.00;1.00;;;;;;6238987;28;20241;-52
2022/11/24 02:44:55;;;;;;;101.93;45.93;;;2.10;1.00;;;;;;6234809;28;20286;-53
2022/11/24 02:48:00;;;;;;;107.40;45.20;;;2.10;1.00;;;;;;6216597;28;20525;-52
2022/11/24 02:51:03;;;;;;;111.93;49.00;;;2.10;1.00;;;;;;6209586;28;20242;-54
2022/11/24 02:54:06;;;;;;;89.40;46.23;;;2.10;1.00;;;;;;6210097;28;20243;-53
2022/11/24 02:57:10;;;;;;;79.67;45.57;;;2.00;1.00;;;;;;6223874;28;20265;-53
2022/11/24 03:00:16;;;;;;;104.90;47.70;;;1.90;1.00;;;;;;6233512;28;20234;-53
2022/11/24 03:03:19;;;;;;;126.50;47.13;;;2.30;1.00;;;;;;6229977;28;20231;-54
2022/11/24 03:06:22;;;;;;;110.63;47.83;;;2.20;1.00;;;;;;6209584;28;20853;-55
2022/11/24 03:09:25;;;;;;;78.63;44.07;;;1.90;1.00;;;;;;6233595;28;20318;-54
2022/11/24 03:12:28;;;;;;;97.10;43.27;;;2.00;1.00;;;;;;6247382;28;20238;-56
2022/11/24 03:15:33;;;;;;;76.67;43.17;;;2.30;1.00;;;;;;6235444;28;20243;-54
2022/11/24 03:18:36;;;;;;;102.43;44.67;;;2.20;1.00;;;;;;6231759;28;20310;-54
2022/11/24 03:21:39;;;;;;;76.33;42.40;;;2.00;1.00;;;;;;6214012;28;20242;-52
2022/11/24 03:24:42;;;;;;;85.63;44.37;;;1.80;1.00;;;;;;6214962;28;20261;-52
2022/11/24 03:27:45;;;;;;;82.00;43.47;;;2.10;1.00;;;;;;6213517;28;20258;-52
2022/11/24 03:30:50;;;;;;;87.83;44.60;;;2.10;1.00;;;;;;6214643;28;20227;-53
2022/11/24 03:33:53;;;;;;;75.37;43.00;;;1.90;1.00;;;;;;6217349;28;20246;-54
2022/11/24 03:36:57;;;;;;;84.33;43.40;;;2.20;1.00;;;;;;6217727;28;20322;-53
2022/11/24 03:40:00;;;;;;;89.37;44.00;;;2.00;1.00;;;;;;6233921;28;20709;-52
2022/11/24 03:43:03;;;;;;;81.53;43.83;;;2.00;1.00;;;;;;6240823;28;20678;-53
2022/11/24 03:46:08;;;;;;;98.97;44.33;;;2.20;1.00;;;;;;6233807;28;20243;-53
2022/11/24 03:49:11;;;;;;;105.33;44.33;;;2.10;1.00;;;;;;6235861;28;20243;-53
2022/11/24 03:52:14;;;;;;;88.40;44.00;;;1.80;1.00;;;;;;6214318;28;20263;-54
2022/11/24 03:55:18;;;;;;;85.27;43.83;;;2.10;1.00;;;;;;6214554;28;20318;-53
2022/11/24 03:58:21;;;;;;;90.87;44.87;;;2.20;1.00;;;;;;6213759;28;20302;-53
2022/11/24 04:01:25;;;;;;;85.67;43.60;;;1.90;1.00;;;;;;6214044;28;20722;-54
2022/11/24 04:04:28;;;;;;;93.10;44.77;;;2.00;1.00;;;;;;6213050;28;20605;-54
2022/11/24 04:07:32;;;;;;;80.30;43.13;;;1.90;1.00;;;;;;6221055;28;20234;-54
2022/11/24 04:10:36;;;;;;;80.10;42.33;;;2.20;1.00;;;;;;6241707;28;20372;-53
2022/11/24 04:13:38;;;;;;;125.60;43.77;;;1.90;1.00;;;;;;6243579;28;20266;-52
2022/11/24 04:16:43;;;;;;;83.53;41.40;;;2.10;1.00;;;;;;6233869;28;20239;-53
2022/11/24 04:19:46;;;;;;;91.03;43.03;;;1.80;1.00;;;;;;6213612;28;20243;-53
2022/11/24 04:22:50;;;;;;;72.83;41.80;;;1.80;1.00;;;;;;6221931;28;20231;-53
2022/11/24 04:25:53;;;;;;;94.83;41.63;;;2.00;1.00;;;;;;6237531;28;20245;-54
2022/11/24 04:28:56;;;;;;;90.97;41.70;;;1.80;1.00;;;;;;6236830;28;20237;-53
2022/11/24 04:32:00;;;;;;;85.13;39.80;;;2.00;1.00;;;;;;6187955;28;20245;-54
2022/11/24 04:35:03;;;;;;;71.13;38.37;;;2.00;1.00;;;;;;6208218;28;20228;-53
2022/11/24 04:38:06;;;;;;;84.10;40.20;;;1.90;1.00;;;;;;6212556;28;20243;-53
2022/11/24 04:41:09;;;;;;;75.40;40.03;;;1.70;1.00;;;;;;6215727;28;20239;-52
2022/11/24 04:44:13;;;;;;;78.77;40.10;;;1.80;1.00;;;;;;6217616;28;20235;-52
2022/11/24 04:47:20;;;;;;;96.20;40.67;;;1.90;1.00;;;;;;6212715;28;20270;-53
2022/11/24 04:50:23;;;;;;;74.30;40.17;;;2.10;1.00;;;;;;6202875;28;20284;-53
2022/11/24 04:53:26;;;;;;;112.30;44.30;;;2.10;1.00;;;;;;6210271;28;20283;-53
2022/11/24 04:56:29;;;;;;;107.70;43.07;;;1.80;1.00;;;;;;6207310;28;20236;-54
2022/11/24 04:59:33;;;;;;;87.20;40.10;;;2.00;1.00;;;;;;6208943;28;20235;-54
2022/11/24 05:02:37;;;;;;;77.77;39.30;;;2.10;1.00;;;;;;6210763;28;20250;-54
2022/11/24 05:05:40;;;;;;;93.70;40.63;;;2.00;1.00;;;;;;6210100;28;20236;-53
2022/11/24 05:08:46;;;;;;;74.67;38.43;;;1.90;1.00;;;;;;6214778;28;20232;-53
2022/11/24 05:11:49;;;;;;;86.90;40.43;;;1.60;1.00;;;;;;6221414;28;20228;-53
2022/11/24 05:14:52;;;;;;;73.23;39.33;;;1.90;1.00;;;;;;6212826;28;20243;-53
2022/11/24 05:17:56;;;;;;;84.03;38.47;;;2.00;1.00;;;;;;6207187;28;20250;-53
2022/11/24 05:20:59;;;;;;;70.20;37.03;;;1.80;1.00;;;;;;6210694;28;20243;-53
2022/11/24 05:24:03;;;;;;;76.03;39.77;;;1.70;1.00;;;;;;6208636;28;20231;-53
2022/11/24 05:27:06;;;;;;;74.43;39.23;;;1.70;1.00;;;;;;6222280;28;20628;-56
2022/11/24 05:30:10;;;;;;;82.10;38.60;;;2.00;1.00;;;;;;6235040;28;20234;-54
2022/11/24 05:33:17;;;;;;;96.37;40.37;;;1.70;1.00;;;;;;6228627;28;20716;-53
2022/11/24 05:39:41;;;;;;;68.57;38.43;;;1.80;1.00;;;;;;6229525;28;20600;-53
2022/11/24 05:42:44;;;;;;;90.60;41.40;;;1.70;1.00;;;;;;6247145;28;20310;-54
2022/11/24 05:45:50;;;;;;;75.43;38.60;;;1.70;1.00;;;;;;6227333;28;20574;-57
2022/11/24 05:48:54;;;;;;;68.70;37.97;;;1.70;1.00;;;;;;6233979;28;20720;-53
2022/11/24 05:51:57;;;;;;;111.27;42.07;;;2.00;1.00;;;;;;6233918;28;20242;-54
2022/11/24 05:55:00;;;;;;;68.20;36.63;;;1.80;1.00;;;;;;6225472;28;20238;-53
2022/11/24 05:58:05;;;;;;;94.17;42.27;;;2.00;1.00;;;;;;6225537;28;20242;-51
2022/11/24 06:01:08;;;;;;;83.90;38.70;;;1.60;1.00;;;;;;6234087;28;20736;-52
2022/11/24 06:04:12;;;;;;;82.53;38.13;;;2.00;1.00;;;;;;6232488;28;20393;-54
2022/11/24 06:07:16;;;;;;;83.83;39.00;;;1.60;1.00;;;;;;6232813;28;20257;-54
2022/11/24 06:10:21;;;;;;;66.03;36.70;;;2.00;1.00;;;;;;6231996;28;20455;-53
2022/11/24 06:13:24;;;;;;;76.70;36.03;;;1.70;1.00;;;;;;6233197;28;20551;-54
2022/11/24 06:16:27;;;;;;;89.37;35.37;;;1.60;1.00;;;;;;6230870;28;20730;-55
2022/11/24 06:19:32;;;;;;;91.00;37.47;;;1.80;1.00;;;;;;6233592;28;20788;-54
2022/11/24 06:22:38;;;;;;;55.23;32.23;;;1.80;1.00;;;;;;6233735;28;20234;-53
2022/11/24 06:25:41;;;;;;;100.67;35.83;;;1.80;1.00;;;;;;6227990;28;21589;-54
2022/11/24 06:28:48;;;;;;;73.97;35.67;;;1.80;1.00;;;;;;6236394;28;20290;-53
2022/11/24 06:31:52;;;;;;;64.10;33.67;;;1.60;1.00;;;;;;6233250;28;20646;-52
2022/11/24 06:34:56;;;;;;;59.37;33.10;;;1.70;1.00;;;;;;6230983;28;20297;-53
2022/11/24 06:37:59;;;;;;;65.40;34.67;;;1.60;1.00;;;;;;6233551;28;20747;-53
2022/11/24 06:41:05;;;;;;;62.60;34.00;;;1.80;1.00;;;;;;6232832;28;20612;-54
2022/11/24 06:44:08;;;;;;;71.40;36.87;;;1.50;1.00;;;;;;6233412;28;20231;-54
2022/11/24 06:47:10;;;;;;;64.30;32.97;;;1.50;1.00;;;;;;6245801;28;20273;-54
2022/11/24 06:50:15;;;;;;;70.00;35.50;;;1.60;1.00;;;;;;6241414;28;20277;-53
2022/11/24 06:53:19;;;;;;;62.90;33.47;;;1.60;1.00;;;;;;6225562;28;20239;-56
2022/11/24 06:56:22;;;;;;;66.47;34.63;;;1.90;1.00;;;;;;6216529;28;20803;-53
2022/11/24 06:59:26;;;;;;;64.40;33.43;;;1.50;1.00;;;;;;6208547;28;20756;-53
2022/11/24 07:02:29;;;;;;;82.57;35.37;;;1.70;1.00;;;;;;6215787;28;20249;-54
2022/11/24 07:05:33;;;;;;;82.43;36.83;;;1.60;1.00;;;;;;6204150;28;20243;-53
2022/11/24 07:08:36;;;;;;;79.13;38.43;;;1.80;1.00;;;;;;6203376;28;20318;-53
2022/11/24 07:11:40;;;;;;;67.70;35.53;;;1.80;1.00;;;;;;6209458;28;20243;-54
2022/11/24 07:14:43;;;;;;;86.73;37.30;;;1.80;1.00;;;;;;6214282;28;20227;-53
2022/11/24 07:17:46;;;;;;;63.37;35.33;;;2.00;1.00;;;;;;6207373;28;20227;-53
2022/11/24 07:20:50;;;;;;;74.07;35.77;;;1.80;1.00;;;;;;6205106;28;20701;-54
2022/11/24 07:23:55;;;;;;;70.83;35.97;;;2.00;1.00;;;;;;6205098;28;20561;-53
2022/11/24 07:26:58;;;;;;;63.33;33.60;;;2.10;1.00;;;;;;6209682;28;20246;-54
2022/11/24 07:30:01;;;;;;;60.07;34.80;;;1.80;1.00;;;;;;6212907;28;20628;-53
2022/11/24 07:33:04;;;;;;;69.47;35.37;;;2.10;1.00;;;;;;6211241;28;20840;-56
2022/11/24 07:36:09;;;;;;;62.40;33.17;;;1.90;1.00;;;;;;6203881;28;20255;-53
2022/11/24 07:39:12;;;;;;;61.40;33.40;;;2.10;1.00;;;;;;6194335;28;20235;-54
2022/11/24 07:42:15;;;;;;;56.23;31.93;;;2.30;1.00;;;;;;6196085;28;20254;-52
2022/11/24 07:45:18;;;;;;;59.83;33.30;;;2.00;1.00;;;;;;6208557;28;20250;-54
2022/11/24 07:48:21;;;;;;;64.27;34.77;;;2.10;1.00;;;;;;6203685;28;20239;-53
2022/11/24 07:51:27;;;;;;;54.10;31.40;;;2.10;1.00;;;;;;6200480;28;20258;-53
2022/11/24 07:54:30;;;;;;;62.33;32.47;;;2.30;1.00;;;;;;6213582;28;20768;-55
2022/11/24 07:57:34;;;;;;;73.33;35.63;;;2.40;1.00;;;;;;6204836;28;20239;-53
2022/11/24 08:00:37;;;;;;;60.70;35.30;;;2.30;1.00;;;;;;6205800;28;20618;-54
2022/11/24 08:03:40;;;;;;;60.70;32.53;;;2.50;1.00;;;;;;6214939;28;20401;-53
2022/11/24 08:06:45;;;;;;;65.83;36.10;;;2.60;1.00;;;;;;6209177;28;20249;-55
2022/11/24 08:09:51;;;;;;;62.17;35.03;;;2.50;1.00;;;;;;6202127;28;20592;-53
2022/11/24 08:12:53;;;;;;;65.83;36.00;;;2.30;1.00;;;;;;6214874;28;20613;-53
2022/11/24 08:15:56;;;;;;;61.27;35.03;;;2.30;1.00;;;;;;6206725;28;20238;-54
2022/11/24 08:18:59;;;;;;;62.00;35.27;;;2.60;1.00;;;;;;6220155;28;20235;-54
2022/11/24 08:22:03;;;;;;;68.53;34.87;;;2.40;1.00;;;;;;6211499;28;20243;-53
2022/11/24 08:25:07;;;;;;;66.60;35.53;;;2.20;1.00;;;;;;6211335;28;20286;-55
2022/11/24 08:28:10;;;;;;;65.53;35.67;;;2.20;1.00;;;;;;6210567;28;20239;-53
2022/11/24 08:31:15;;;;;;;59.40;33.57;;;2.50;1.00;;;;;;6211125;28;20235;-53
2022/11/24 08:34:18;;;;;;;58.37;33.57;;;2.40;1.00;;;;;;6205844;28;20236;-55
2022/11/24 08:37:24;;;;;;;62.90;34.83;;;2.40;1.00;;;;;;6210060;28;20756;-54
2022/11/24 08:40:27;;;;;;;52.60;32.93;;;2.40;1.00;;;;;;6208788;28;20590;-54
2022/11/24 08:43:30;;;;;;;64.47;35.43;;;2.80;1.00;;;;;;6233281;28;20238;-53
2022/11/24 08:46:33;;;;;;;60.50;33.17;;;2.80;1.00;;;;;;6242128;28;20235;-55
2022/11/24 08:49:36;;;;;;;57.00;33.67;;;2.60;1.00;;;;;;6243236;28;20343;-53
2022/11/24 08:52:41;;;;;;;48.83;31.80;;;2.80;1.00;;;;;;6244868;28;20231;-54
2022/11/24 08:55:44;;;;;;;56.77;34.97;;;2.50;1.00;;;;;;6238985;28;20238;-54
2022/11/24 08:58:47;;;;;;;58.33;33.53;;;2.90;1.00;;;;;;6235292;28;20732;-55
2022/11/24 09:01:50;;;;;;;52.00;32.90;;;2.70;1.00;;;;;;6242720;28;20230;-54
2022/11/24 09:04:53;;;;;;;51.80;32.07;;;2.70;1.00;;;;;;6235467;28;20227;-55
2022/11/24 09:07:58;;;;;;;48.03;30.07;;;2.70;1.00;;;;;;6235106;28;20314;-54
2022/11/24 09:11:01;;;;;;;47.80;31.03;;;3.10;1.00;;;;;;6242241;28;20594;-54
2022/11/24 09:14:04;;;;;;;51.67;31.17;;;3.10;1.00;;;;;;6229968;28;20241;-54
2022/11/24 09:17:07;;;;;;;46.43;29.93;;;3.20;1.00;;;;;;6235192;28;20293;-53
2022/11/24 09:20:10;;;;;;;52.43;31.73;;;3.20;1.00;;;;;;6234298;28;20849;-54
2022/11/24 09:23:15;;;;;;;44.77;30.13;;;3.10;1.00;;;;;;6237957;28;20392;-53
2022/11/24 09:26:19;;;;;;;42.37;30.17;;;3.30;1.00;;;;;;6234547;28;20251;-54
2022/11/24 09:29:22;;;;;;;45.87;29.47;;;3.30;1.00;;;;;;6230671;28;20267;-53
2022/11/24 09:32:25;;;;;;;41.60;29.73;;;3.20;1.00;;;;;;6234072;28;20235;-54
2022/11/24 09:35:28;;;;;;;53.50;30.57;;;3.30;1.00;;;;;;6233676;28;20241;-55
2022/11/24 09:38:33;;;;;;;44.67;30.73;;;3.50;1.00;;;;;;6232914;28;20246;-53
2022/11/24 09:41:42;;;;;;;47.27;31.17;;;3.50;1.00;;;;;;6231438;28;20242;-53
2022/11/24 09:45:14;;;;;;;45.43;29.80;;;3.10;1.00;;;;;;6235927;28;20223;-54
2022/11/24 09:48:25;;;;;;;46.27;29.43;;;3.20;1.00;;;;;;6216548;28;20734;-55
2022/11/24 09:51:31;;;;;;;43.97;30.37;;;3.50;1.00;;;;;;6205167;28;20242;-54
2022/11/24 09:54:40;;;;;;;52.60;31.27;;;3.70;1.00;;;;;;6210171;28;20227;-53
2022/11/24 09:57:43;;;;;;;47.70;31.40;;;3.40;1.00;;;;;;6204308;28;20239;-54
2022/11/24 10:00:50;;;;;;;44.67;29.40;;;3.40;1.00;;;;;;6208491;28;20235;-55
2022/11/24 10:03:54;;;;;;;47.33;30.87;;;3.70;1.00;;;;;;6215260;28;20571;-55
2022/11/24 10:07:07;;;;;;;47.10;30.07;;;4.00;1.00;;;;;;6214405;28;20394;-54
2022/11/24 10:10:16;;;;;;;42.73;30.23;;;3.90;1.00;;;;;;6225759;28;20239;-53
2022/11/24 10:13:44;;;;;;;42.20;29.33;;;4.00;1.00;;;;;;6204760;28;20239;-53
2022/11/24 10:16:56;;;;;;;46.47;31.33;;;3.90;1.00;;;;;;6239732;28;20551;-53
2022/11/24 10:20:06;;;;;;;42.20;30.13;;;4.20;1.00;;;;;;6237083;28;20239;-54
2022/11/24 10:23:21;;;;;;;49.00;32.93;;;4.40;1.00;;;;;;6237028;28;20234;-53
2022/11/24 10:26:34;;;;;;;43.47;30.80;;;4.50;1.00;;;;;;6233262;28;20461;-54
2022/11/24 10:29:40;;;;;;;44.00;30.10;;;4.50;1.00;;;;;;6230044;28;20243;-53
2022/11/24 10:32:47;;;;;;;38.83;29.27;;;4.50;1.00;;;;;;6238735;28;20239;-55
2022/11/24 10:35:55;;;;;;;43.17;29.37;;;4.80;1.00;;;;;;6215915;28;20239;-55
2022/11/24 10:39:04;;;;;;;43.10;28.60;;;4.80;1.00;;;;;;6215452;28;20258;-54
2022/11/24 10:42:15;;;;;;;37.07;29.27;;;5.10;1.00;;;;;;6219246;28;20233;-55
2022/11/24 10:45:21;;;;;;;38.83;28.60;;;4.90;1.00;;;;;;6210206;28;20235;-55
2022/11/24 10:48:26;;;;;;;40.27;29.20;;;4.60;1.00;;;;;;6222627;28;20412;-54
2022/11/24 10:51:41;;;;;;;42.80;30.93;;;4.70;1.00;;;;;;6228609;28;20237;-54
2022/11/24 10:54:55;;;;;;;41.53;29.40;;;4.60;1.00;;;;;;6228515;28;20245;-55
2022/11/24 10:58:15;;;;;;;38.93;28.17;;;4.50;1.00;;;;;;6238957;28;20747;-55
2022/11/24 11:01:27;;;;;;;43.10;29.13;;;4.50;1.00;;;;;;6215628;28;20227;-54
2022/11/24 11:04:32;;;;;;;37.90;28.77;;;4.80;1.00;;;;;;6227662;28;20608;-54
2022/11/24 11:07:35;;;;;;;42.03;30.70;;;4.80;1.00;;;;;;6238383;28;20242;-54
2022/11/24 11:10:38;;;;;;;40.10;28.37;;;4.90;1.00;;;;;;6237897;28;20242;-54
2022/11/24 11:13:52;;;;;;;39.47;29.23;;;5.20;1.00;;;;;;6235892;28;20231;-54
2022/11/24 11:17:02;;;;;;;41.70;31.10;;;5.30;1.00;;;;;;6232979;28;20664;-54
2022/11/24 11:20:16;;;;;;;43.10;29.63;;;5.20;1.00;;;;;;6236492;28;20758;-55
2022/11/24 11:23:27;;;;;;;38.40;29.20;;;5.40;1.00;;;;;;6228904;28;20242;-50
2022/11/24 11:26:35;;;;;;;41.43;29.93;;;5.50;1.00;;;;;;6238394;28;20235;-53
2022/11/24 11:29:39;;;;;;;41.00;30.27;;;5.70;1.00;;;;;;6232853;28;20265;-53
2022/11/24 11:33:02;;;;;;;34.97;27.57;;;5.80;1.00;;;;;;6231154;28;20238;-54
2022/11/24 11:36:26;;;;;;;40.23;29.33;;;5.80;1.00;;;;;;6222749;28;20646;-55
2022/11/24 11:39:31;;;;;;;38.03;28.77;;;5.90;1.00;;;;;;6228487;28;20374;-55
2022/11/24 11:42:43;;;;;;;37.57;29.30;;;5.90;1.00;;;;;;6233816;28;20239;-51
2022/11/24 11:46:14;;;;;;;41.17;29.67;;;6.00;1.00;;;;;;6233084;28;20238;-55
2022/11/24 11:49:17;;;;;;;41.27;30.53;;;5.90;1.00;;;;;;6234226;28;20240;-54
2022/11/24 11:52:53;;;;;;;43.23;31.77;;;5.90;1.00;;;;;;6240615;28;20237;-56
2022/11/24 11:56:11;;;;;;;35.77;27.43;;;5.90;1.00;;;;;;6214621;28;20227;-53
2022/11/24 11:59:31;;;;;;;38.63;29.00;;;6.00;1.00;;;;;;6209487;28;20241;-54
2022/11/24 12:03:16;;;;;;;41.50;28.57;;;5.90;1.00;;;;;;6228047;28;20235;-54
2022/11/24 12:06:33;;;;;;;37.83;27.33;;;5.90;1.00;;;;;;6226907;28;20522;-54
2022/11/24 12:09:52;;;;;;;37.23;28.80;;;5.90;1.00;;;;;;6223812;28;20226;-53
2022/11/24 12:13:27;;;;;;;38.10;28.60;;;6.00;1.00;;;;;;6214022;28;20235;-55
2022/11/24 12:16:40;;;;;;;40.60;29.23;;;6.10;1.00;;;;;;6246798;28;20609;-54
2022/11/24 12:20:06;;;;;;;38.57;29.47;;;6.20;1.00;;;;;;6237692;28;20385;-54
2022/11/24 12:23:20;;;;;;;39.17;28.53;;;6.20;1.00;;;;;;6236391;28;20257;-54
2022/11/24 12:26:30;;;;;;;46.40;32.43;;;6.20;1.00;;;;;;6236199;28;20257;-56
2022/11/24 12:30:02;;;;;;;41.40;30.07;;;6.20;1.00;;;;;;6232821;28;20242;-53
2022/11/24 12:33:25;;;;;;;38.67;28.97;;;6.20;1.00;;;;;;6235613;28;20231;-55
2022/11/24 12:36:47;;;;;;;39.93;29.60;;;6.10;1.00;;;;;;6209349;28;20250;-55
2022/11/24 12:39:56;;;;;;;34.87;27.13;;;6.10;1.00;;;;;;6231509;28;20223;-55
2022/11/24 12:43:09;;;;;;;38.80;29.60;;;6.20;1.00;;;;;;6232873;28;20274;-55
2022/11/24 12:46:19;;;;;;;42.27;29.53;;;6.10;1.00;;;;;;6234238;28;20246;-55
2022/11/24 12:49:30;;;;;;;40.80;30.13;;;6.00;1.00;;;;;;6215836;28;20409;-53
2022/11/24 12:52:37;;;;;;;39.33;29.13;;;6.20;1.00;;;;;;6213723;28;20767;-54
2022/11/24 12:55:42;;;;;;;41.97;28.17;;;6.30;1.00;;;;;;6223751;28;20236;-54
2022/11/24 12:58:51;;;;;;;36.70;29.20;;;6.40;1.00;;;;;;6209680;28;20720;-55
2022/11/24 13:02:04;;;;;;;33.23;26.80;;;6.40;1.00;;;;;;6217305;28;20235;-54
2022/11/24 13:05:20;;;;;;;36.77;28.03;;;6.40;1.00;;;;;;6234606;28;20278;-55
2022/11/24 13:08:26;;;;;;;34.17;27.17;;;6.40;1.00;;;;;;6235738;28;20254;-54
2022/11/24 13:11:38;;;;;;;36.90;27.87;;;6.50;1.00;;;;;;6230618;28;20235;-55
2022/11/24 13:14:44;;;;;;;39.40;28.90;;;6.70;1.00;;;;;;6223567;28;20716;-55
2022/11/24 13:17:47;;;;;;;36.23;28.00;;;6.50;1.00;;;;;;6235232;28;20748;-54
2022/11/24 13:21:34;;;;;;;38.00;28.23;;;6.50;1.00;;;;;;6229308;28;20490;-54
2022/11/24 13:24:40;;;;;;;42.03;28.50;;;6.50;1.00;;;;;;6233000;28;20575;-54
2022/11/24 13:27:46;;;;;;;35.60;27.43;;;6.80;1.00;;;;;;6229097;28;20258;-55
2022/11/24 13:30:54;;;;;;;35.30;27.50;;;6.60;1.00;;;;;;6240661;28;20231;-54
2022/11/24 13:33:57;;;;;;;35.13;27.60;;;6.60;1.00;;;;;;6234533;28;20532;-54
2022/11/24 13:37:00;;;;;;;35.37;25.93;;;6.60;1.00;;;;;;6234136;28;20486;-54
2022/11/24 13:40:43;;;;;;;40.27;30.30;;;6.60;1.00;;;;;;6235327;28;20261;-54
2022/11/24 13:44:23;;;;;;;36.27;28.97;;;6.70;1.00;;;;;;6239076;28;20238;-54
2022/11/24 13:47:35;;;;;;;38.13;28.07;;;6.50;1.00;;;;;;6232580;28;20628;-54
2022/11/24 13:51:12;;;;;;;33.23;25.73;;;6.40;1.00;;;;;;6232045;28;20251;-55
2022/11/24 13:54:15;;;;;;;37.03;29.70;;;6.50;1.00;;;;;;6230680;28;20251;-55
2022/11/24 13:57:38;;;;;;;35.37;27.63;;;6.50;1.00;;;;;;6234629;28;20234;-55
2022/11/24 14:01:12;;;;;;;39.33;29.03;;;6.50;1.00;;;;;;6229200;28;20623;-53
2022/11/24 14:04:21;;;;;;;36.37;27.80;;;6.40;1.00;;;;;;6230767;28;20240;-54
2022/11/24 14:07:34;;;;;;;34.60;27.50;;;6.40;1.00;;;;;;6236691;28;20725;-55
2022/11/24 14:10:41;;;;;;;39.47;29.33;;;6.50;1.00;;;;;;6234244;28;20337;-55
2022/11/24 14:13:45;;;;;;;36.83;29.13;;;6.40;1.00;;;;;;6230557;28;20234;-55
2022/11/24 14:16:48;;;;;;;39.77;28.93;;;6.30;1.00;;;;;;6230957;28;20657;-54
2022/11/24 14:19:52;;;;;;;36.57;27.27;;;6.30;1.00;;;;;;6230555;28;20234;-55
2022/11/24 14:22:55;;;;;;;32.93;26.33;;;6.30;1.00;;;;;;6240691;28;20257;-54
2022/11/24 14:25:58;;;;;;;40.43;29.83;;;6.10;1.00;;;;;;6232608;28;20401;-53
2022/11/24 14:29:07;;;;;;;43.40;29.27;;;6.20;1.00;;;;;;6222788;28;20245;-56
2022/11/24 14:32:16;;;;;;;40.53;30.63;;;6.20;1.00;;;;;;6232709;28;20249;-53
2022/11/24 14:35:23;;;;;;;37.33;29.07;;;6.20;1.00;;;;;;6233707;28;20239;-54
2022/11/24 14:38:26;;;;;;;38.33;29.03;;;6.20;1.00;;;;;;6226800;28;20293;-54
2022/11/24 14:41:29;;;;;;;37.17;29.03;;;6.10;1.00;;;;;;6235439;28;20234;-55
2022/11/24 14:44:43;;;;;;;39.63;30.30;;;6.00;1.00;;;;;;6229381;28;21755;-55
2022/11/24 14:47:46;;;;;;;35.57;26.33;;;5.90;1.00;;;;;;6233444;28;20277;-56
2022/11/24 14:50:49;;;;;;;37.10;28.87;;;5.90;1.00;;;;;;6235073;28;20724;-55
2022/11/24 14:53:55;;;;;;;37.50;29.43;;;5.90;1.00;;;;;;6231342;28;20253;-54
2022/11/24 14:57:02;;;;;;;42.63;29.93;;;6.00;1.00;;;;;;6227386;28;20249;-55
2022/11/24 15:00:19;;;;;;;37.77;27.77;;;5.90;1.00;;;;;;6233052;28;20613;-54
2022/11/24 15:03:22;;;;;;;42.83;31.63;;;5.80;1.00;;;;;;6226836;28;20251;-54
2022/11/24 15:06:25;;;;;;;38.80;31.37;;;5.80;1.00;;;;;;6232092;28;20632;-55
2022/11/24 15:09:33;;;;;;;44.50;32.47;;;5.80;1.00;;;;;;6228288;28;20249;-55
2022/11/24 15:12:39;;;;;;;42.80;30.00;;;5.70;1.00;;;;;;6230337;28;20632;-55
2022/11/24 15:15:49;;;;;;;37.80;28.50;;;5.90;1.00;;;;;;6221020;28;20238;-54
2022/11/24 15:18:58;;;;;;;47.50;34.90;;;6.00;1.00;;;;;;6214399;28;20618;-54
2022/11/24 15:22:21;;;;;;;44.27;31.93;;;5.80;1.00;;;;;;6211046;28;20239;-54
2022/11/24 15:25:32;;;;;;;40.90;31.17;;;5.90;1.00;;;;;;6214736;28;20534;-55
2022/11/24 15:28:35;;;;;;;45.43;33.30;;;5.70;1.00;;;;;;6218190;28;20711;-53
2022/11/24 15:31:40;;;;;;;44.10;32.97;;;5.60;1.00;;;;;;6209062;28;20645;-54
2022/11/24 15:34:46;;;;;;;43.13;32.00;;;5.50;1.00;;;;;;6212009;28;20408;-54
2022/11/24 15:37:49;;;;;;;39.37;30.83;;;5.50;1.00;;;;;;6215792;28;20235;-54
2022/11/24 15:40:55;;;;;;;40.77;29.00;;;5.40;1.00;;;;;;6215361;28;20246;-54
2022/11/24 15:43:58;;;;;;;46.90;34.17;;;5.50;1.00;;;;;;6221337;28;20251;-54
2022/11/24 15:47:03;;;;;;;43.83;32.20;;;5.60;1.00;;;;;;6209133;28;20648;-54
2022/11/24 15:50:07;;;;;;;47.27;32.57;;;5.50;1.00;;;;;;6215370;28;20262;-53
2022/11/24 15:53:18;;;;;;;43.00;31.40;;;5.50;1.00;;;;;;6213627;28;20512;-53
2022/11/24 15:56:24;;;;;;;49.17;32.80;;;5.50;1.00;;;;;;6209810;28;20250;-55
2022/11/24 15:59:30;;;;;;;47.37;32.87;;;5.40;1.00;;;;;;6214601;28;20621;-53
2022/11/24 16:02:34;;;;;;;42.70;29.80;;;5.50;1.00;;;;;;6234809;28;20326;-53
2022/11/24 16:05:38;;;;;;;45.37;33.23;;;5.50;1.00;;;;;;6234147;28;20311;-54
2022/11/24 16:08:41;;;;;;;48.57;32.47;;;5.60;1.00;;;;;;6230631;28;20402;-52
2022/11/24 16:11:44;;;;;;;45.60;32.07;;;5.40;1.00;;;;;;6230815;28;20241;-53
2022/11/24 16:14:47;;;;;;;49.87;33.20;;;5.50;1.00;;;;;;6239631;28;20229;-53